Terminal Aerodrome Forecast
Issued by NWS Charleston, WV

Current Version | Previous Version | Text Only | Print | Product List | Glossary Off
Versions: 1 2 3 4 5 6 7 8 9 10 11 12 13 14 15 16 17 18 19 20 21 22 23 24 25 26 27

050
FTUS41 KRLX 220832 AAA
TAFEKN
TAF AMD
KEKN 220832Z 2209/2306 00000KT 1/2SM FG VV002
     FM221200 00000KT 2SM BR BKN003
     FM221300 23008KT P6SM SCT060
     FM221900 25010G16KT P6SM VCTS BKN050CB
     FM230100 25008KT 2SM +TSRA OVC025CB
     FM230400 26006KT 4SM SHRA VCTS OVC025CB
     FM230500 26004KT P6SM VCSH OVC035=

USA.gov is the U.S. government's official web portal to all federal, state and local government web resources and services.